Montreal International (Mirabel) Airport

CYMX

May 22, 2022

Time Code Weather Temp. Visibility Clouds Wind METAR/SPECI
3:50 am
V
63 °F 10 mi 16,000 ft Var   Var 4 kt METAR CYMX 220750Z VRB04KT 10SM R24/3000VP6000FT/U BCFG FEW002 BKN160 BKN220 17/17 A2990 RMK SF1AS4CI2 PRESRR SLP127 DENSITY ALT 600FT
3:31 am
L
63 °F 3 mi 200 ft 360°   360° 3 kt METAR CYMX 220731Z 36003KT 220V360 3SM BR BKN002 BKN150 17/16 A2989 RMK SF6AC1 TWR VIS 1 PRESFR SLP122 DENSITY ALT 600FT
3:13 am
L
63 °F 1 mi 200 ft Var   Var 2 kt METAR CYMX 220713Z VRB02KT 1SM R24/P6000FT/N BR BKN002 BKN150 17/17 A2992 RMK SF5AC1 VIS 3 S SLP133 DENSITY ALT 600FT
3:00 am
L
63 °F 10 mi 300 ft Var   000° 0 kt METAR CYMX 220700Z 00000KT 10SM BKN003 BKN150 17/17 A2991 RMK SF5AC2 VIS 3 N SLP130 DENSITY ALT 600FT
2:51 am
V
63 °F 20 mi 16,000 ft Var   Var 2 kt METAR CYMX 220651Z VRB02KT 20SM FEW003 SCT013 OVC160 17/17 A2991 RMK ST1SC2AS5 SLP131 DENSITY ALT 600FT
2:00 am
V
63 °F 20 mi 23,000 ft 220°   220° 4 kt METAR CYMX 220600Z 22004KT 190V250 20SM SCT013 OVC230 17/17 A2996 RMK SF3CI5 SLP147 DENSITY ALT 600FT
1:00 am
V
63 °F 25 mi - Var   Var 2 kt METAR CYMX 220500Z VRB02KT 25SM R24/3500VP6000FT/D FEW025 SCT240 17/16 A2995 RMK SC1CI2 SLP144 DENSITY ALT 500FT
12:00 am
V
63 °F 25 mi - 220°   220° 3 kt METAR CYMX 220400Z 22003KT 25SM SKC 17/17 A2995 RMK PRESRR SLP144 DENSITY ALT 600FT

May 21, 2022

Time Code Weather Temp. Visibility Clouds Wind METAR/SPECI
11:00 pm
V
63 °F 25 mi - 270°   270° 4 kt METAR CYMX 220300Z 27004KT 240V300 25SM SKC 17/17 A2993 RMK SLP137 DENSITY ALT 600FT
10:00 pm
V
64 °F 25 mi - 280°   280° 4 kt METAR CYMX 220200Z 28004KT 250V330 25SM FEW130 SCT140 18/17 A2993 RMK AC1CI2 PRESRR SLP137 DENSITY ALT 700FT
9:00 pm
V
64 °F 25 mi - 240°   240° 5 kt METAR CYMX 220100Z 24005KT 220V290 25SM FEW130 SCT240 18/17 A2989 RMK AC2CI1 PRESRR SLP125 DENSITY ALT 800FT
8:00 pm
V
66 °F 25 mi 18,000 ft 260°   260° 5 kt METAR CYMX 220000Z 26005KT 230V290 25SM FEW015 FEW060 BKN180 BKN220 19/17 A2988 RMK CF1SC1AS5CI1 CF TR SLP119 DENSITY ALT 900FT
7:00 pm
V
66 °F 25 mi 16,000 ft 260°   260° 7 15 kt METAR CYMX 212300Z 26007G15KT 210V300 25SM FEW015 FEW060 BKN160 19/17 A2987 RMK CF1SC1AS6 CF TR SLP118 DENSITY ALT 900FT
6:16 pm
V
66 °F 25 mi 16,000 ft 230°   230° 5 kt METAR CYMX 212216Z 23005KT 190V290 25SM VCSH FEW015 FEW060 BKN160 19/17 A2986 RMK CF1CU2AS5 CF TR DIST CB E SLP116 DENSITY ALT 900FT
6:00 pm
V
66 °F 20 mi 14,000 ft 240°   240° 5 kt METAR CYMX 212200Z 24005KT 220V320 20SM TS SCT060CB BKN140 OVC250 19/17 A2986 RMK CB3AC2CI3 SLP113 DENSITY ALT 900FT
5:00 pm
V
73 °F 15 mi 6,800 ft 280°   280° 19 42 kt METAR CYMX 212100Z 28019G42KT 190V310 15SM TSRA SCT061CB OVC068 23/17 A2989 RMK CB3AC5 PRESRR SLP124 DENSITY ALT 1300FT
4:00 pm
V
84 °F 15 mi 9,000 ft 210°   210° 14 21 kt METAR CYMX 212000Z 21014G21KT 15SM FEW053CB BKN090 BKN250 29/18 A2979 RMK CB2AC3CI2 CB N AND S QUD MOVG E SLP088 DENSITY ALT 2100FT
3:00 pm
V
86 °F 15 mi 25,000 ft 260°   260° 10 17 kt METAR CYMX 211900Z 26010G17KT 210V280 15SM SCT060 SCT090 BKN250 30/20 A2979 RMK CU3AC1CI1 SLP089 DENSITY ALT 2300FT
2:00 pm
V
86 °F 15 mi 9,000 ft 230°   230° 7 kt METAR CYMX 211800Z 23007KT 190V260 15SM FEW040 BKN090 BKN250 30/20 A2980 RMK CU1AC4CI1 SLP091 DENSITY ALT 2200FT
1:00 pm
V
84 °F 15 mi 25,000 ft 240°   240° 7 16 kt METAR CYMX 211700Z 24007G16KT 170V310 15SM FEW035 SCT120 BKN250 29/20 A2979 RMK CU1AC3CI3 SLP090 DENSITY ALT 2100FT
12:00 pm
V
82 °F 15 mi 25,000 ft 190°   190° 9 kt METAR CYMX 211600Z 19009KT 160V230 15SM FEW038 SCT110 BKN250 28/21 A2979 RMK CU2AC2CI2 SLP088 DENSITY ALT 2100FT
11:00 am
V
81 °F 15 mi 25,000 ft 230°   230° 6 kt METAR CYMX 211500Z 23006KT 180V270 15SM FEW028 FEW110 BKN250 27/21 A2979 RMK CF1AC1CI5 CF TR SLP090 DENSITY ALT 1900FT
10:00 am
V
77 °F 15 mi 25,000 ft 220°   220° 10 17 kt METAR CYMX 211400Z 22010G17KT 190V270 15SM FEW025 FEW110 BKN250 25/19 A2981 RMK CF1AC1CI3 SLP096 DENSITY ALT 1700FT
9:00 am
V
73 °F 15 mi - Var   Var 2 kt METAR CYMX 211300Z VRB02KT 15SM FEW110 23/19 A2981 RMK AC2 SLP098 DENSITY ALT 1400FT
8:00 am
V
70 °F 15 mi 25,000 ft 160°   160° 4 kt METAR CYMX 211200Z 16004KT 130V190 15SM FEW050CB SCT120 BKN250 21/18 A2979 RMK CB1AC4CI2 CB DIST N MOVG E SLP090 DENSITY ALT 1200FT
7:00 am
V
66 °F 15 mi 25,000 ft 170°   170° 5 kt METAR CYMX 211100Z 17005KT 120V180 15SM SCT055 BKN250 19/16 A2980 RMK SC3CI4 SLP092 DENSITY ALT 1000FT
6:00 am
V
64 °F 20 mi 10,000 ft 160°   160° 4 kt METAR CYMX 211000Z 16004KT 20SM VCSH SCT060 SCT065CB BKN100 BKN220 18/16 A2977 RMK CU3CB1AC2CI1 SLP082 DENSITY ALT 900FT
5:51 am
V
64 °F 20 mi 6,500 ft 160°   160° 5 kt METAR CYMX 210951Z 16005KT 20SM FEW020 SCT060 BKN065CB BKN110 18/16 A2976 RMK CF1CU3CB2AS2 CF TR SLP081 DENSITY ALT 900FT
5:15 am
V
66 °F 20 mi 6,900 ft 170°   170° 3 kt METAR CYMX 210915Z 17003KT 20SM TS VCSH SCT040CB BKN069 OVC120 19/16 A2976 RMK CB3AC3AS2 CB W MVG S OCNL LTGCC SLP081 DENSITY ALT 1000FT
5:00 am
V
66 °F 20 mi 6,000 ft 160°   160° 3 kt METAR CYMX 210900Z 16003KT 120V200 20SM VCSH SCT038 BKN060 BKN120 19/16 A2976 RMK CU3SC3AS1 SLP079 DENSITY ALT 1000FT
4:00 am
V
68 °F 25 mi 3,800 ft 190°   190° 3 kt METAR CYMX 210800Z 19003KT 140V230 25SM OVC038 20/16 A2974 RMK SC8 PRESRR SLP073 DENSITY ALT 1200FT
3:00 am
V
68 °F 25 mi 4,300 ft 170°   170° 3 kt METAR CYMX 210700Z 17003KT 130V190 25SM BKN043 20/16 A2973 RMK SC7 SLP071 DENSITY ALT 1200FT
2:00 am
V
70 °F 25 mi 24,000 ft 170°   170° 5 kt METAR CYMX 210600Z 17005KT 25SM SCT062 BKN240 21/16 A2972 RMK SC3CI2 SLP068 DENSITY ALT 1300FT
1:00 am
V
70 °F 25 mi - 180°   180° 10 kt METAR CYMX 210500Z 18010KT 25SM SCT240 21/16 A2973 RMK CI4 SLP070 DENSITY ALT 1300FT
12:00 am
V
68 °F 25 mi - 160°   160° 7 kt METAR CYMX 210400Z 16007KT 25SM SCT240 20/15 A2974 RMK CI4 SLP072 DENSITY ALT 1200FT

May 20, 2022

Time Code Weather Temp. Visibility Clouds Wind METAR/SPECI
11:00 pm
V
70 °F 25 mi 24,000 ft 170°   170° 7 kt METAR CYMX 210300Z 17007KT 25SM FEW075 BKN240 21/15 A2974 RMK AC2CI3 SLP074 DENSITY ALT 1300FT
10:00 pm
V
72 °F 25 mi 7,500 ft 160°   160° 7 kt METAR CYMX 210200Z 16007KT 25SM BKN075 BKN240 22/15 A2972 RMK AC5CI2 SLP067 DENSITY ALT 1400FT
9:00 pm
V
72 °F 25 mi 24,000 ft 150°   150° 6 kt METAR CYMX 210100Z 15006KT 120V180 25SM FEW150 BKN240 22/16 A2970 RMK AC1CI5 SLP059 DENSITY ALT 1400FT
8:00 pm
V
73 °F 30 mi 25,000 ft 150°   150° 5 kt METAR CYMX 210000Z 15005KT 30SM FEW150 BKN250 23/16 A2970 RMK AC1CI6 AC TR SLP061 DENSITY ALT 1600FT
7:00 pm
V
77 °F 30 mi 24,000 ft 150°   150° 7 kt METAR CYMX 202300Z 15007KT 30SM FEW140 BKN240 25/15 A2970 RMK AC1CI4 SLP059 DENSITY ALT 1700FT
6:00 pm
V
77 °F 30 mi - 150°   150° 7 kt METAR CYMX 202200Z 15007KT 110V170 30SM FEW140 FEW250 25/15 A2968 RMK AC1CI2 AC TR SLP054 DENSITY ALT 1800FT
5:00 pm
V
77 °F 30 mi - 150°   150° 5 kt METAR CYMX 202100Z 15005KT 080V180 30SM FEW250 25/15 A2971 RMK CI2 SLP064 DENSITY ALT 1800FT
4:00 pm
V
75 °F 30 mi - 110°   110° 5 kt METAR CYMX 202000Z 11005KT 060V150 30SM FEW060 FEW210 24/14 A2973 RMK SC1CI2 SC TR SLP071 DENSITY ALT 1700FT
3:00 pm
V
73 °F 30 mi - 140°   140° 5 kt METAR CYMX 201900Z 14005KT 080V170 30SM FEW140 FEW210 23/13 A2975 RMK AC2CI1 CI TR SLP078 DENSITY ALT 1500FT
2:00 pm
V
72 °F 30 mi - 100°   100° 9 15 kt METAR CYMX 201800Z 10009G15KT 050V160 30SM FEW140 SCT210 22/12 A2978 RMK AC2CI2 SLP088 DENSITY ALT 1300FT
1:00 pm
V
68 °F 30 mi - 110°   110° 6 kt METAR CYMX 201700Z 11006KT 060V140 30SM FEW140 FEW210 20/13 A2980 RMK AC1CI1 PRESFR SLP096 DENSITY ALT 1100FT
12:00 pm
V
64 °F 30 mi - 090°   090° 9 kt METAR CYMX 201600Z 09009KT 060V130 30SM FEW110 SCT210 18/11 A2983 RMK AC2CI2 SLP106 DENSITY ALT 800FT
11:00 am
V
61 °F 30 mi 11,000 ft 090°   090° 9 kt METAR CYMX 201500Z 09009KT 060V140 30SM FEW020 BKN110 BKN250 16/11 A2987 RMK SC2AC3CI2 SLP120 DENSITY ALT 500FT
10:00 am
M
57 °F 15 mi 1,800 ft 120°   120° 5 kt METAR CYMX 201400Z 12005KT 060V140 15SM BKN018 BKN110 14/10 A2987 RMK SC5AC2 SLP120 DENSITY ALT 300FT
9:00 am
M
54 °F 10 mi 1,400 ft 130°   130° 5 kt METAR CYMX 201300Z 13005KT 070V160 10SM BKN014 BKN110 12/11 A2988 RMK SC5AC2 SLP122
8:23 am
M
52 °F 7 mi 1,000 ft 090°   090° 4 kt METAR CYMX 201223Z 09004KT 050V140 7SM BKN010 OVC110 11/11 A2986 RMK SF5AC3 SLP116
8:00 am
L
52 °F 1½ mi 300 ft 080°   080° 3 kt METAR CYMX 201200Z 08003KT 040V110 1 1/2SM BR OVC003 11/10 A2987 RMK ST8 SLP119
7:51 am
L
50 °F 1½ mi 200 ft Var   Var 2 kt METAR CYMX 201151Z VRB02KT 1 1/2SM R06/3500VP6000FT/U BR OVC002 10/10 A2987 RMK ST8 SLP118
7:40 am
L
50 °F ½ mi 200 ft 080°   080° 4 kt METAR CYMX 201140Z 08004KT 020V120 1/2SM R06/2600V4000FT/U FG VV002 10/10 A2986 RMK FG8 SLP116
7:00 am
L
48 °F ⅜ mi 500 ft Var   Var 2 kt METAR CYMX 201100Z VRB02KT 3/8SM R06/1100V2200FT/U FG OVC005 09/09 A2986 RMK FG7SF1 SLP116
6:27 am
L
48 °F ⅛ mi 200 ft Var   Var 2 kt METAR CYMX 201027Z VRB02KT 1/8SM R06/0800V0900FT/N FG VV002 09/09 A2987 RMK FG8 SLP118
6:09 am
L
46 °F ¼ mi 200 ft Var   000° 0 kt METAR CYMX 201009Z 00000KT 1/4SM R06/1200V1600FT/N FG OVC002 08/08 A2987 RMK SF8 SLP119
6:00 am
L
46 °F ½ mi 100 ft Var   000° 0 kt METAR CYMX 201000Z 00000KT 1/2SM R06/1600V2000FT/N FG OVC001 08/08 A2986 RMK SF8 SLP116
5:41 am
L
46 °F ¾ mi 200 ft Var   Var 2 kt METAR CYMX 200941Z VRB02KT 3/4SM R06/1200V1800FT/N BR BKN002 OVC200 08/07 A2985 RMK SF7CI1 SLP111
5:21 am
I
46 °F 2½ mi - Var   000° 0 kt METAR CYMX 200921Z 00000KT 2 1/2SM R06/4000VP6000FT/D BR BCFG FEW001 SCT007 SCT011 SCT200 08/08 A2983 RMK SF2SF1SC1CI1 CI TR BCFG OVR APCH RWY 24 AND SW SLP107
5:00 am
M
48 °F 4 mi - 060°   060° 3 kt METAR CYMX 200900Z 06003KT 030V100 4SM R06/3000VP6000FT/D BR BCFG FEW001 SCT006 SCT010 SCT200 09/09 A2982 RMK SF1SF2SC1CI1 CI TR BCFG OVR APCH RWY 24 ANS SW SLP103
4:00 am
M
50 °F 8 mi 1,000 ft Var   000° 0 kt METAR CYMX 200800Z 00000KT 8SM OVC010 10/09 A2983 RMK SC8 SLP106
3:00 am
I
48 °F 3 mi 700 ft Var   Var 2 kt METAR CYMX 200700Z VRB02KT 3SM BR OVC007 09/09 A2980 RMK SC8 PRESRR SLP096
Older data

Download our app

Easy access to all aviation weather on your mobile phone and tablet.
With many features not available on the website, like offline support and a personal airport list.

We and third parties follow your internet behavior on our website with cookies. If you continue, we assume you agree with our cookie policy. Learn more